Coin, Spain
Current Conditions -  °F | °C
As of 12:30 AM on Sunday 26 Oct 2014 (Local Time) from LEMG Reporting Station
Clear Clear  
Wind Chill: 61°   Ceiling: Unl
Heat Index: 61°   Visibility: 6mi
Dew Point: 48°   Wind: 9mph
Humidity: 63%   Direction: 290°WNW
Pressure: 30.15"   Gusts: NA
Location:  36.66°N, 4.76°W
Report Text: LEMG 252230Z 29008KT CAVOK 16/09 Q1021 NOSIG
Loading
Personal Weather Stations






























Interactive Weather Map
Tropical Storm Tracking
New forecast layout! Learn more

10-Day Weather Forecast

Advertisements
Track Severe Weather on mobile